Flight Track Log - Related Links

Times and Time Zones

All times are in EDT time to prevent confusion due to time zone crossing. See the DAL6196 flight status page for this flight to view local times or setup timezone preferences in your user account.

Time Position Orientation Groundspeed Altitude Reporting Facility
EDT Latitude Longitude Course Direction KTS MPH feet Rate Location/Type
Sun 04:54:34 PM 40.8397 -73.8733 314° West 191 220 2,700  Level New York Center
Sun 04:55:33 PM 40.8833 -73.9333 314° West 245 282 5,200 2,924 Climbing New York TRACON
Sun 04:56:33 PM 40.8667 -74.0333 258° West 266 306 8,500 3,050 Climbing New York TRACON
Sun 04:57:33 PM 40.8500 -74.1333 258° West 268 308 11,300 2,250 Climbing New York TRACON
Sun 04:58:33 PM 40.8333 -74.2333 258° West 308 354 13,000 1,911 Climbing New York TRACON
Sun 05:00:32 PM 40.7961 -74.4442 257° West 320 368 17,000 1,591 Climbing New York Center
Sun 05:01:34 PM 40.7731 -74.5828 258° West 342 394 17,800 1,059 Climbing New York Center
Sun 05:02:31 PM 40.7503 -74.7072 256° West 371 427 19,100 1,412 Climbing New York Center
Sun 05:03:33 PM 40.7269 -74.8431 257° West 385 443 20,600 1,450 Climbing New York Center
Sun 05:04:31 PM 40.7011 -74.9783 256° West 390 449 22,000 1,361 Climbing New York Center
Sun 05:05:32 PM 40.6650 -75.1156 251° West 390 449 23,300 1,300 Climbing New York Center
Sun 05:06:31 PM 40.6103 -75.2378 239° Southwest 390 449 24,600 1,319 Climbing New York Center
Sun 05:08:34 PM 40.4922 -75.4922 239° Southwest 408 470 27,300 1,293 Climbing New York Center
Sun 05:09:32 PM 40.4369 -75.6194 240° Southwest 408 470 28,500 1,068 Climbing New York Center
Sun 05:10:32 PM 40.3797 -75.7433 239° Southwest 413 475 29,400 908 Climbing New York Center
Sun 05:11:31 PM 40.3178 -75.8750 238° Southwest 413 475 30,300 950 Climbing New York Center
Sun 05:12:32 PM 40.2469 -76.0167 237° Southwest 419 482 31,300 950 Climbing New York Center
Sun 05:13:31 PM 40.1869 -76.1481 239° Southwest 419 482 32,200 843 Climbing New York Center
Sun 05:14:33 PM 40.1336 -76.2661 239° Southwest 414 476 33,000 850 Climbing New York Center
Sun 05:15:31 PM 40.0753 -76.3944 239° Southwest 414 476 33,900 915 Climbing New York Center
Sun 05:16:31 PM 40.0172 -76.5200 239° Southwest 414 476 34,800 906 Climbing New York Center
Sun 05:18:10 PM 39.9181 -76.7269 238° Southwest 405 466 36,300 778 Climbing Washington Center
Sun 05:19:13 PM 39.8556 -76.8633 239° Southwest 404 465 36,900 532 Climbing Washington Center
Sun 05:20:14 PM 39.7967 -76.9875 238° Southwest 404 465 37,400 480 Climbing Washington Center
Sun 05:21:18 PM 39.7381 -77.1114 238° Southwest 404 465 37,900 288 Climbing Washington Center
Sun 05:22:19 PM 39.6797 -77.2375 239° Southwest 405 466 38,000 49 Climbing Washington Center
Sun 05:23:20 PM 39.6178 -77.3653 238° Southwest 416 479 38,000  Level Washington Center
Sun 05:24:24 PM 39.5558 -77.4953 238° Southwest 422 486 38,000  Level Washington Center
Sun 05:25:25 PM 39.4811 -77.6519 238° Southwest 428 493 38,000  Level Washington Center
Sun 05:26:28 PM 39.4169 -77.7825 238° Southwest 429 494 38,000  Level Washington Center
Sun 05:27:30 PM 39.3597 -77.9147 241° Southwest 428 493 38,000  Level Washington Center
Sun 05:28:30 PM 39.3069 -78.0486 243° Southwest 422 486 38,000  Level Washington Center
Sun 05:29:34 PM 39.2425 -78.2103 243° Southwest 422 486 38,000  Level Washington Center
Sun 05:30:35 PM 39.1886 -78.3433 242° Southwest 422 486 38,000  Level Washington Center
Sun 05:31:39 PM 39.1336 -78.4794 243° Southwest 425 489 38,000  Level Washington Center
Sun 05:32:40 PM 39.0792 -78.6136 242° Southwest 425 489 38,000  Level Washington Center
Sun 05:33:44 PM 39.0253 -78.7467 242° Southwest 424 488 38,000  Level Washington Center
Sun 05:34:44 PM 38.9706 -78.8803 242° Southwest 424 488 38,000  Level Washington Center
Sun 05:35:48 PM 38.9050 -79.0406 242° Southwest 424 488 38,000  Level Washington Center
Sun 05:36:49 PM 38.8506 -79.1756 243° Southwest 424 488 38,000  Level Washington Center
Sun 05:37:50 PM 38.8189 -79.3192 254° West 425 489 38,000  Level Washington Center
Sun 05:38:54 PM 38.7936 -79.4667 258° West 423 487 38,000  Level Washington Center
Sun 05:39:55 PM 38.7639 -79.6253 257° West 423 487 38,000  Level Washington Center
Sun 05:40:56 PM 38.7369 -79.7678 256° West 423 487 38,000  Level Washington Center
Sun 05:41:51 PM 38.7139 -79.8969 257° West 423 487 38,000  Level Indianapolis Center
Sun 05:42:53 PM 38.6797 -80.0753 256° West 427 491 38,000  Level Indianapolis Center
Sun 05:43:55 PM 38.6506 -80.2258 256° West 432 497 38,000  Level Indianapolis Center
Sun 05:44:57 PM 38.6231 -80.3744 257° West 432 497 38,000  Level Indianapolis Center
Sun 05:45:59 PM 38.5956 -80.5233 257° West 432 497 38,000  Level Indianapolis Center
Sun 05:47:01 PM 38.5664 -80.6731 256° West 432 497 38,000  Level Indianapolis Center
Sun 05:48:03 PM 38.5372 -80.8217 256° West 432 497 38,000  Level Indianapolis Center
Sun 05:49:05 PM 38.5089 -80.9683 256° West 430 495 38,000  Level Indianapolis Center
Sun 05:50:07 PM 38.4744 -81.1444 256° West 428 493 38,000  Level Indianapolis Center
Sun 05:51:09 PM 38.4456 -81.2908 256° West 424 488 38,000  Level Indianapolis Center
Sun 05:52:11 PM 38.4153 -81.4372 255° West 424 488 38,000  Level Indianapolis Center
Sun 05:53:14 PM 38.3864 -81.5847 256° West 424 488 38,000  Level Indianapolis Center
Sun 05:54:16 PM 38.3572 -81.7311 256° West 424 488 38,000  Level Indianapolis Center
Sun 05:55:18 PM 38.3206 -81.8753 252° West 424 488 38,000  Level Indianapolis Center
Sun 05:56:20 PM 38.2803 -82.0183 250° West 425 489 38,000  Level Indianapolis Center
Sun 05:57:22 PM 38.2394 -82.1606 250° West 425 489 38,000  Level Indianapolis Center
Sun 05:58:24 PM 38.1914 -82.3308 250° West 425 489 38,000  Level Indianapolis Center
Sun 05:59:26 PM 38.1511 -82.4725 250° West 426 490 38,000  Level Indianapolis Center
Sun 06:00:28 PM 38.1083 -82.6231 250° West 426 490 38,000  Level Indianapolis Center
Sun 06:01:30 PM 38.0678 -82.7642 250° West 426 490 38,000  Level Indianapolis Center
Sun 06:02:32 PM 38.0144 -82.8994 243° Southwest 430 495 38,000 -48 Level Indianapolis Center
Sun 06:03:34 PM 37.9500 -83.0308 238° Southwest 436 502 37,900 -480 Descending Indianapolis Center
Sun 06:04:37 PM 37.8853 -83.1647 239° Southwest 443 510 37,000 -864 Descending Indianapolis Center
Sun 06:05:39 PM 37.8086 -83.3206 238° Southwest 446 513 36,100 -919 Descending Indianapolis Center
Sun 06:06:41 PM 37.7439 -83.4517 238° Southwest 445 512 35,100 -968 Descending Indianapolis Center
Sun 06:07:43 PM 37.6792 -83.5822 238° Southwest 444 511 34,100 -532 Descending Indianapolis Center
Sun 06:08:45 PM 37.6142 -83.7133 238° Southwest 444 511 34,000 -48 Descending Indianapolis Center
Sun 06:09:47 PM 37.5478 -83.8447 238° Southwest 444 511 34,000 -387 Level Indianapolis Center
Sun 06:10:49 PM 37.4708 -83.9983 238° Southwest 444 511 33,200 -774 Descending Indianapolis Center
Sun 06:11:51 PM 37.4069 -84.1289 238° Southwest 444 511 32,400 -581 Descending Indianapolis Center
Sun 06:12:53 PM 37.3397 -84.2589 237° Southwest 444 511 32,000 -532 Descending Indianapolis Center
Sun 06:13:55 PM 37.2717 -84.3917 237° Southwest 445 512 31,300 -871 Descending Indianapolis Center
Sun 06:14:57 PM 37.2047 -84.5236 238° Southwest 448 516 30,200 -1,152 Descending Indianapolis Center
Sun 06:16:00 PM 37.1278 -84.6739 237° Southwest 444 511 28,900 -1,152 Descending Indianapolis Center
Sun 06:17:02 PM 37.0650 -84.7997 238° Southwest 431 496 27,800 -1,065 Descending Indianapolis Center
Sun 06:18:04 PM 36.9922 -84.9381 237° Southwest 433 498 26,700 -1,016 Descending Indianapolis Center
Sun 06:19:06 PM 36.9264 -85.0653 237° Southwest 438 504 25,700 -968 Descending Indianapolis Center
Sun 06:20:08 PM 36.8594 -85.1919 237° Southwest 438 504 24,700 -968 Descending Indianapolis Center
Sun 06:21:10 PM 36.7947 -85.3169 237° Southwest 436 502 23,700 -1,210 Descending Indianapolis Center
Sun 06:22:12 PM 36.7314 -85.4403 237° Southwest 430 495 22,200 -1,210 Descending Indianapolis Center
Sun 06:23:14 PM 36.6647 -85.5842 240° Southwest 406 467 21,200 -1,096 Descending Indianapolis Center
Sun 06:23:56 PM 36.6314 -85.6567 240° Southwest 405 466 20,300 -1,500 Descending Memphis Center
Sun 06:24:58 PM 36.5739 -85.7764 239° Southwest 405 466 18,600 -1,597 Descending Memphis Center
Sun 06:26:00 PM 36.5169 -85.8969 240° Southwest 390 449 17,000 -1,584 Descending Memphis Center
Sun 06:27:03 PM 36.4631 -86.0086 239° Southwest 379 436 15,300 -1,680 Descending Memphis Center
Sun 06:28:05 PM 36.4089 -86.1233 240° Southwest 379 436 13,500 -1,887 Descending Memphis Center
Sun 06:29:07 PM 36.3489 -86.2456 239° Southwest 356 410 11,400 -1,694 Descending Memphis Center
Sun 06:30:09 PM 36.3061 -86.3353 239° Southwest 314 361 10,000 -1,306 Descending Memphis Center
Sun 06:31:11 PM 36.2681 -86.4153 239° Southwest 276 318 8,700 -1,258 Descending Memphis Center
Sun 06:32:13 PM 36.2308 -86.4908 239° Southwest 260 299 7,400 -1,258 Descending Memphis Center
Sun 06:33:15 PM 36.1750 -86.5347 212° Southwest 247 284 6,100 -1,161 Descending Memphis Center
Sun 06:34:17 PM 36.1128 -86.5594 198° South 237 273 5,000 -1,306 Descending Memphis Center
Sun 06:35:19 PM 36.0542 -86.5833 198° South 225 259 3,400 -1,258 Descending Memphis Center
Sun 06:36:21 PM 36.0128 -86.6272 221° Southwest 218 251 2,400 -484 Descending Memphis Center
Sun 06:37:23 PM 36.0214 -86.7036 278° West 193 222 2,400 -290 Level Memphis Center
Sun 06:38:25 PM 36.0656 -86.7078 356° North 186 214 1,800 -677 Descending Memphis Center
Sun 06:39:27 PM 36.1028 -86.6925 18° North 157 181 1,000 -532 Descending Memphis Center
Sun 06:40:29 PM 36.1347 -86.6803 17° North 151 174 700 -290 Descending Memphis Center

Login

Don't have an account? Register now (free) for customized features, flight alerts, and more!